sensor_id;sensor_type;location;lat;lon;timestamp;pressure;altitude;pressure_sealevel;temperature;humidity
54918;BME280;40818;50.562;7.454;2024-03-25T00:09:39;96839.63;;;4.13;100.00
54918;BME280;40818;50.562;7.454;2024-03-25T00:19:40;96849.91;;;4.13;100.00
54918;BME280;40818;50.562;7.454;2024-03-25T00:29:43;96844.94;;;4.09;100.00
54918;BME280;40818;50.562;7.454;2024-03-25T00:39:44;96851.69;;;4.10;100.00
54918;BME280;40818;50.562;7.454;2024-03-25T00:49:48;96844.94;;;4.09;100.00
54918;BME280;40818;50.562;7.454;2024-03-25T00:59:49;96846.81;;;4.06;100.00
54918;BME280;40818;50.562;7.454;2024-03-25T01:09:52;96849.06;;;3.96;100.00
54918;BME280;40818;50.562;7.454;2024-03-25T01:19:53;96843.31;;;3.91;100.00
54918;BME280;40818;50.562;7.454;2024-03-25T01:29:57;96848.31;;;3.94;100.00
54918;BME280;40818;50.562;7.454;2024-03-25T01:39:57;96845.75;;;3.94;100.00
54918;BME280;40818;50.562;7.454;2024-03-25T01:50:01;96847.88;;;3.86;100.00
54918;BME280;40818;50.562;7.454;2024-03-25T02:00:02;96846.56;;;3.79;100.00
54918;BME280;40818;50.562;7.454;2024-03-25T02:10:12;96840.06;;;3.71;100.00
54918;BME280;40818;50.562;7.454;2024-03-25T02:20:14;96855.88;;;3.64;100.00
54918;BME280;40818;50.562;7.454;2024-03-25T02:30:18;96849.00;;;3.64;100.00
54918;BME280;40818;50.562;7.454;2024-03-25T02:40:20;96845.19;;;3.71;100.00
54918;BME280;40818;50.562;7.454;2024-03-25T02:50:25;96839.50;;;3.66;100.00
54918;BME280;40818;50.562;7.454;2024-03-25T03:00:26;96839.56;;;3.65;100.00
54918;BME280;40818;50.562;7.454;2024-03-25T03:10:29;96851.81;;;3.59;100.00
54918;BME280;40818;50.562;7.454;2024-03-25T03:20:30;96842.84;;;3.51;100.00
54918;BME280;40818;50.562;7.454;2024-03-25T03:30:33;96836.66;;;3.37;100.00
54918;BME280;40818;50.562;7.454;2024-03-25T03:40:34;96833.50;;;3.32;100.00
54918;BME280;40818;50.562;7.454;2024-03-25T03:50:37;96832.31;;;3.22;100.00
54918;BME280;40818;50.562;7.454;2024-03-25T04:00:38;96842.22;;;3.12;100.00
54918;BME280;40818;50.562;7.454;2024-03-25T04:10:42;96832.03;;;2.93;100.00
54918;BME280;40818;50.562;7.454;2024-03-25T04:20:43;96838.72;;;2.78;100.00
54918;BME280;40818;50.562;7.454;2024-03-25T04:30:50;96845.31;;;2.47;100.00
54918;BME280;40818;50.562;7.454;2024-03-25T04:40:51;96849.22;;;2.18;100.00
54918;BME280;40818;50.562;7.454;2024-03-25T04:50:54;96857.94;;;1.95;100.00
54918;BME280;40818;50.562;7.454;2024-03-25T05:00:55;96858.75;;;1.76;100.00
54918;BME280;40818;50.562;7.454;2024-03-25T05:10:59;96857.81;;;1.58;100.00
54918;BME280;40818;50.562;7.454;2024-03-25T05:21:01;96866.66;;;1.51;100.00
54918;BME280;40818;50.562;7.454;2024-03-25T05:31:08;96872.94;;;1.23;100.00
54918;BME280;40818;50.562;7.454;2024-03-25T05:41:09;96881.25;;;1.08;100.00
54918;BME280;40818;50.562;7.454;2024-03-25T05:51:12;96880.09;;;1.15;100.00
54918;BME280;40818;50.562;7.454;2024-03-25T06:01:13;96877.09;;;1.46;100.00
54918;BME280;40818;50.562;7.454;2024-03-25T06:11:17;96865.91;;;1.88;100.00
54918;BME280;40818;50.562;7.454;2024-03-25T06:21:18;96875.91;;;2.50;100.00
54918;BME280;40818;50.562;7.454;2024-03-25T06:31:21;96884.00;;;2.97;100.00
54918;BME280;40818;50.562;7.454;2024-03-25T06:41:37;96876.75;;;4.07;100.00
54918;BME280;40818;50.562;7.454;2024-03-25T06:51:40;96885.13;;;5.50;100.00
54918;BME280;40818;50.562;7.454;2024-03-25T07:01:41;96888.47;;;6.80;100.00
54918;BME280;40818;50.562;7.454;2024-03-25T07:11:45;96887.91;;;7.94;100.00
54918;BME280;40818;50.562;7.454;2024-03-25T07:21:46;96874.00;;;8.95;100.00
54918;BME280;40818;50.562;7.454;2024-03-25T07:31:50;96870.91;;;9.95;95.93
54918;BME280;40818;50.562;7.454;2024-03-25T07:41:51;96880.63;;;11.14;89.56
54918;BME280;40818;50.562;7.454;2024-03-25T07:51:54;96876.56;;;12.06;83.82
54918;BME280;40818;50.562;7.454;2024-03-25T08:01:55;96870.28;;;12.69;73.18
54918;BME280;40818;50.562;7.454;2024-03-25T08:11:58;96869.94;;;13.22;65.78
54918;BME280;40818;50.562;7.454;2024-03-25T08:21:59;96871.56;;;14.10;63.09
54918;BME280;40818;50.562;7.454;2024-03-25T08:32:04;96878.44;;;14.66;61.43
54918;BME280;40818;50.562;7.454;2024-03-25T08:42:05;96881.03;;;14.66;57.26
54918;BME280;40818;50.562;7.454;2024-03-25T08:52:09;96885.97;;;14.70;57.32
54918;BME280;40818;50.562;7.454;2024-03-25T09:02:12;96867.81;;;14.40;56.13
54918;BME280;40818;50.562;7.454;2024-03-25T09:12:15;96864.44;;;14.30;54.60
54918;BME280;40818;50.562;7.454;2024-03-25T09:22:16;96848.25;;;14.26;55.56
54918;BME280;40818;50.562;7.454;2024-03-25T09:32:20;96855.50;;;14.05;53.88
54918;BME280;40818;50.562;7.454;2024-03-25T09:42:25;96830.31;;;13.76;52.40
54918;BME280;40818;50.562;7.454;2024-03-25T09:52:29;96840.28;;;13.23;51.52
54918;BME280;40818;50.562;7.454;2024-03-25T10:02:30;96823.28;;;13.19;53.06
54918;BME280;40818;50.562;7.454;2024-03-25T10:12:35;96824.50;;;13.15;52.47
54918;BME280;40818;50.562;7.454;2024-03-25T10:22:41;96808.19;;;13.90;51.47
54918;BME280;40818;50.562;7.454;2024-03-25T10:32:44;96800.44;;;14.72;50.80
54918;BME280;40818;50.562;7.454;2024-03-25T10:42:46;96792.97;;;15.65;45.75
54918;BME280;40818;50.562;7.454;2024-03-25T10:52:51;96760.88;;;13.75;47.54
54918;BME280;40818;50.562;7.454;2024-03-25T11:02:54;96756.03;;;11.03;54.63
54918;BME280;40818;50.562;7.454;2024-03-25T11:12:57;96748.97;;;14.36;50.29
54918;BME280;40818;50.562;7.454;2024-03-25T11:22:58;96737.56;;;14.37;48.86
54918;BME280;40818;50.562;7.454;2024-03-25T11:33:03;96720.47;;;16.60;45.22
54918;BME280;40818;50.562;7.454;2024-03-25T11:43:04;96724.28;;;14.48;45.72
54918;BME280;40818;50.562;7.454;2024-03-25T11:53:07;96696.44;;;13.85;43.90
54918;BME280;40818;50.562;7.454;2024-03-25T12:03:08;96674.19;;;13.25;47.64
54918;BME280;40818;50.562;7.454;2024-03-25T12:13:15;96659.84;;;13.49;47.41
54918;BME280;40818;50.562;7.454;2024-03-25T12:23:17;96656.25;;;14.32;44.49
54918;BME280;40818;50.562;7.454;2024-03-25T12:33:20;96619.44;;;16.08;42.69
54918;BME280;40818;50.562;7.454;2024-03-25T12:43:21;96605.56;;;14.79;44.99
54918;BME280;40818;50.562;7.454;2024-03-25T12:53:24;96595.03;;;14.26;45.46
54918;BME280;40818;50.562;7.454;2024-03-25T13:03:25;96573.31;;;16.31;42.85
54918;BME280;40818;50.562;7.454;2024-03-25T13:13:28;96563.09;;;16.61;38.79
54918;BME280;40818;50.562;7.454;2024-03-25T13:23:29;96551.41;;;13.74;41.13
54918;BME280;40818;50.562;7.454;2024-03-25T13:33:33;96536.50;;;12.93;43.15
54918;BME280;40818;50.562;7.454;2024-03-25T13:43:34;96524.56;;;14.26;40.96
54918;BME280;40818;50.562;7.454;2024-03-25T13:53:37;96511.69;;;11.65;38.98
54918;BME280;40818;50.562;7.454;2024-03-25T14:03:38;96497.75;;;11.66;42.99
54918;BME280;40818;50.562;7.454;2024-03-25T14:13:41;96470.44;;;12.28;42.08
54918;BME280;40818;50.562;7.454;2024-03-25T14:23:42;96469.09;;;12.15;41.99
54918;BME280;40818;50.562;7.454;2024-03-25T14:33:46;96450.88;;;9.64;45.46
54918;BME280;40818;50.562;7.454;2024-03-25T14:43:46;96419.53;;;10.19;50.17
54918;BME280;40818;50.562;7.454;2024-03-25T14:53:50;96417.75;;;10.50;44.39
54918;BME280;40818;50.562;7.454;2024-03-25T15:03:51;96412.34;;;10.01;44.27
54918;BME280;40818;50.562;7.454;2024-03-25T15:13:54;96398.34;;;9.83;44.41
54918;BME280;40818;50.562;7.454;2024-03-25T15:23:55;96367.97;;;9.95;46.25
54918;BME280;40818;50.562;7.454;2024-03-25T15:33:59;96354.38;;;9.29;49.98
54918;BME280;40818;50.562;7.454;2024-03-25T15:44:00;96343.50;;;8.93;51.61
54918;BME280;40818;50.562;7.454;2024-03-25T15:54:03;96335.50;;;8.96;50.89
54918;BME280;40818;50.562;7.454;2024-03-25T16:04:04;96333.19;;;8.49;50.02
54918;BME280;40818;50.562;7.454;2024-03-25T16:14:07;96315.34;;;8.12;52.60
54918;BME280;40818;50.562;7.454;2024-03-25T16:24:08;96312.47;;;7.72;54.38
54918;BME280;40818;50.562;7.454;2024-03-25T16:34:12;96305.03;;;7.44;54.11
54918;BME280;40818;50.562;7.454;2024-03-25T16:44:13;96293.28;;;7.29;55.22
54918;BME280;40818;50.562;7.454;2024-03-25T16:54:16;96296.03;;;6.92;57.83
54918;BME280;40818;50.562;7.454;2024-03-25T17:04:17;96289.47;;;6.88;57.99
54918;BME280;40818;50.562;7.454;2024-03-25T17:14:20;96285.06;;;6.77;58.65
54918;BME280;40818;50.562;7.454;2024-03-25T17:24:21;96280.19;;;6.61;59.89
54918;BME280;40818;50.562;7.454;2024-03-25T17:34:25;96286.00;;;6.40;60.41
54918;BME280;40818;50.562;7.454;2024-03-25T17:44:25;96264.16;;;6.09;60.79
54918;BME280;40818;50.562;7.454;2024-03-25T17:54:29;96259.75;;;5.98;61.93
54918;BME280;40818;50.562;7.454;2024-03-25T18:04:29;96247.75;;;5.73;63.20
54918;BME280;40818;50.562;7.454;2024-03-25T18:14:33;96240.97;;;5.59;63.01
54918;BME280;40818;50.562;7.454;2024-03-25T18:24:34;96221.31;;;5.45;65.59
54918;BME280;40818;50.562;7.454;2024-03-25T18:34:37;96217.34;;;5.28;65.55
54918;BME280;40818;50.562;7.454;2024-03-25T18:44:38;96211.81;;;5.08;66.23
54918;BME280;40818;50.562;7.454;2024-03-25T18:54:42;96209.75;;;4.88;64.87
54918;BME280;40818;50.562;7.454;2024-03-25T19:04:42;96208.41;;;4.69;67.24
54918;BME280;40818;50.562;7.454;2024-03-25T19:14:46;96203.16;;;4.58;69.41
54918;BME280;40818;50.562;7.454;2024-03-25T19:24:47;96197.06;;;4.46;70.72
54918;BME280;40818;50.562;7.454;2024-03-25T19:34:50;96190.34;;;4.31;72.80
54918;BME280;40818;50.562;7.454;2024-03-25T19:44:51;96166.78;;;4.24;72.63
54918;BME280;40818;50.562;7.454;2024-03-25T19:54:55;96159.09;;;4.24;70.88
54918;BME280;40818;50.562;7.454;2024-03-25T20:04:55;96152.78;;;4.02;71.70
54918;BME280;40818;50.562;7.454;2024-03-25T20:14:59;96146.19;;;3.98;70.88
54918;BME280;40818;50.562;7.454;2024-03-25T20:25:00;96138.25;;;3.88;72.34
54918;BME280;40818;50.562;7.454;2024-03-25T20:35:04;96129.59;;;3.76;72.01
54918;BME280;40818;50.562;7.454;2024-03-25T20:45:05;96112.72;;;3.72;72.07
54918;BME280;40818;50.562;7.454;2024-03-25T20:55:08;96103.91;;;3.76;70.27
54918;BME280;40818;50.562;7.454;2024-03-25T21:05:10;96092.59;;;3.66;70.59
54918;BME280;40818;50.562;7.454;2024-03-25T21:15:14;96077.44;;;3.49;72.36
54918;BME280;40818;50.562;7.454;2024-03-25T21:25:15;96069.66;;;3.50;73.00
54918;BME280;40818;50.562;7.454;2024-03-25T21:35:18;96061.38;;;3.59;71.98
54918;BME280;40818;50.562;7.454;2024-03-25T21:45:19;96049.66;;;3.55;71.39
54918;BME280;40818;50.562;7.454;2024-03-25T21:55:22;96054.03;;;3.40;72.84
54918;BME280;40818;50.562;7.454;2024-03-25T22:05:23;96035.75;;;3.45;73.98
54918;BME280;40818;50.562;7.454;2024-03-25T22:15:27;96032.03;;;3.36;75.05
54918;BME280;40818;50.562;7.454;2024-03-25T22:25:27;96027.78;;;3.22;75.20
54918;BME280;40818;50.562;7.454;2024-03-25T22:35:31;96017.16;;;3.29;75.51
54918;BME280;40818;50.562;7.454;2024-03-25T22:45:32;96019.09;;;3.25;75.94
54918;BME280;40818;50.562;7.454;2024-03-25T22:55:35;95996.00;;;3.25;76.57
54918;BME280;40818;50.562;7.454;2024-03-25T23:05:36;95986.19;;;3.32;76.83
54918;BME280;40818;50.562;7.454;2024-03-25T23:15:39;95983.41;;;3.07;79.18
54918;BME280;40818;50.562;7.454;2024-03-25T23:25:40;95981.72;;;2.94;80.47
54918;BME280;40818;50.562;7.454;2024-03-25T23:35:44;95962.44;;;2.88;80.56
54918;BME280;40818;50.562;7.454;2024-03-25T23:45:45;95953.13;;;2.72;83.78
54918;BME280;40818;50.562;7.454;2024-03-25T23:55:49;95956.34;;;2.76;82.56
